Forside
METAR-TAF:

METAR-TAF

Lufthavne :

Chicago Executive Airport

Wheeling / Prospect Heights, Illinois, USA

Breddekreds: 42-07-15N, længdekreds: 087-54-17W, højde: 197 m

Aktuelle vejr

Denne rapport blev lavet for 1 time og 12 minutter siden, kl. 16:52 UTC
Vind 9 kt fra nordøst
Temperatur 23°C
Fugtighed 41%
Tryk 1020 hPa
Sigt: 16.1 km
skyfri

METAR: KPWK 061652Z 05009KT 10SM CLR 23/09 A3011 RMK AO2 SLP192 T02280094

Tid: 13:04 (18:04 UTC)


TAF: fraværende

Vejrobservationer og prognoser fra mere end 4000 lufthavne (METAR og TAF).

De gule og røde prikker repræsenterer de meteorologiske stationer.

Flyt musen over at se navnet på stationen.

Så klik over at se vejr observationer og prognoser.

At skifte det kort: Klik på de grønne knapper med et sort kors for at zoome ind; på den grønne knap med en bindestreg for at zoome ud; eller på de grønne pile for tilstødende kort.


METAR-TAF: